Time;durP1;ratioP1;P1;durP2;ratioP2;P2;SDS_P1;SDS_P2;PMS_P1;PMS_P2;Temp;Humidity;BMP_temperature;BMP_pressure;BME280_temperature;BME280_humidity;BME280_pressure;Samples;Min_cycle;Max_cycle;Signal;HPM_P1;HPM_P2
2022/03/05 00:07:29;;;;;;;0.93;0.43;;;9.70;53.80;;;;;;20682654;28;20046;-62
2022/03/05 00:17:31;;;;;;;0.70;0.20;;;9.60;53.60;;;;;;20682192;28;20193;-63
2022/03/05 00:27:34;;;;;;;0.40;0.20;;;9.60;53.70;;;;;;20681078;28;20077;-60
2022/03/05 00:37:35;;;;;;;0.80;0.10;;;9.40;53.80;;;;;;20679733;28;20148;-65
2022/03/05 00:47:37;;;;;;;0.65;0.22;;;9.20;54.00;;;;;;20680954;28;20085;-63
2022/03/05 00:57:39;;;;;;;0.93;0.30;;;9.10;54.40;;;;;;20678612;28;20137;-64
2022/03/05 01:07:41;;;;;;;0.35;0.13;;;9.00;54.30;;;;;;20678526;28;20141;-69
2022/03/05 01:17:43;;;;;;;1.25;0.50;;;8.90;54.50;;;;;;20676670;28;20502;-64
2022/03/05 01:27:45;;;;;;;0.43;0.15;;;8.80;54.80;;;;;;20675783;28;20097;-69
2022/03/05 01:37:47;;;;;;;0.85;0.10;;;8.80;54.70;;;;;;20678045;28;20475;-69
2022/03/05 01:47:48;;;;;;;0.28;0.10;;;8.70;54.80;;;;;;20689098;28;20073;-63
2022/03/05 01:57:50;;;;;;;1.73;0.20;;;8.60;55.00;;;;;;20673864;28;20050;-69
2022/03/05 02:07:52;;;;;;;0.77;0.28;;;8.60;55.20;;;;;;20672753;28;20046;-69
2022/03/05 02:17:54;;;;;;;1.13;0.28;;;8.60;55.50;;;;;;20671964;28;20059;-65
2022/03/05 02:27:57;;;;;;;2.95;0.20;;;8.50;55.90;;;;;;20671470;28;20384;-68
2022/03/05 02:38:00;;;;;;;2.28;0.30;;;8.30;56.30;;;;;;20671284;28;20061;-68
2022/03/05 02:48:03;;;;;;;0.63;0.20;;;8.10;56.50;;;;;;20670365;28;20487;-66
2022/03/05 02:58:05;;;;;;;0.88;0.30;;;8.00;56.80;;;;;;20668482;28;20129;-67
2022/03/05 03:08:07;;;;;;;1.60;0.30;;;7.90;56.90;;;;;;20667167;28;20050;-66
2022/03/05 03:18:09;;;;;;;1.75;0.17;;;7.90;56.90;;;;;;20666423;28;20062;-67
2022/03/05 03:28:10;;;;;;;0.88;0.40;;;7.70;57.00;;;;;;20666204;28;20104;-62
2022/03/05 03:38:14;;;;;;;0.90;0.30;;;7.70;57.00;;;;;;20664901;28;20057;-66
2022/03/05 03:48:35;;;;;;;0.47;0.20;;;7.70;56.90;;;;;;20679506;28;20104;-61
2022/03/05 03:58:56;;;;;;;0.60;0.30;;;7.70;57.00;;;;;;20667730;28;20443;-62
2022/03/05 04:09:18;;;;;;;1.02;0.30;;;7.70;57.00;;;;;;20678838;28;20163;-62
2022/03/05 04:19:39;;;;;;;0.50;0.20;;;7.70;57.10;;;;;;20665395;28;20059;-68
2022/03/05 04:29:58;;;;;;;1.25;0.47;;;7.70;57.10;;;;;;20690959;28;20047;-66
2022/03/05 04:40:09;;;;;;;0.82;0.20;;;7.70;57.00;;;;;;20679890;28;20057;-66
2022/03/05 04:50:30;;;;;;;0.65;0.20;;;7.50;57.20;;;;;;20678610;28;20053;-63
2022/03/05 05:00:37;;;;;;;0.68;0.20;;;7.50;56.90;;;;;;20676579;28;20054;-66
2022/03/05 05:10:43;;;;;;;0.17;0.10;;;7.50;56.70;;;;;;20676123;28;20050;-68
2022/03/05 05:20:48;;;;;;;2.05;0.35;;;7.50;56.90;;;;;;20675813;28;20573;-60
2022/03/05 05:30:50;;;;;;;1.08;0.40;;;7.40;57.10;;;;;;20674482;28;20510;-63
2022/03/05 05:40:52;;;;;;;1.10;0.47;;;7.30;58.10;;;;;;20673729;28;20124;-61
2022/03/05 05:50:56;;;;;;;2.33;0.50;;;7.10;59.30;;;;;;20674306;28;20133;-66
2022/03/05 06:00:59;;;;;;;1.50;0.68;;;6.80;60.80;;;;;;20687127;28;20050;-61
2022/03/05 06:11:01;;;;;;;2.22;0.85;;;6.50;62.00;;;;;;20672009;28;20044;-64
2022/03/05 06:21:02;;;;;;;1.50;0.68;;;6.40;62.50;;;;;;20670828;28;20096;-61
2022/03/05 06:31:04;;;;;;;2.22;0.60;;;6.30;63.00;;;;;;20670979;28;20050;-63
2022/03/05 06:41:05;;;;;;;2.90;0.93;;;6.20;63.50;;;;;;20670572;28;20461;-61
2022/03/05 06:51:07;;;;;;;1.30;0.50;;;6.00;64.20;;;;;;20668569;28;20069;-67
2022/03/05 07:01:10;;;;;;;1.27;0.57;;;5.90;64.60;;;;;;20669105;28;20054;-61
2022/03/05 07:11:13;;;;;;;0.88;0.43;;;5.90;64.90;;;;;;20668717;28;20058;-64
2022/03/05 07:21:15;;;;;;;4.65;1.25;;;5.70;65.20;;;;;;20667274;28;20054;-63
2022/03/05 07:31:17;;;;;;;1.05;0.77;;;5.60;65.40;;;;;;20666181;28;20328;-63
2022/03/05 07:41:19;;;;;;;2.25;1.20;;;5.70;65.50;;;;;;20667574;28;20050;-61
2022/03/05 07:51:20;;;;;;;1.40;0.65;;;5.90;65.10;;;;;;20666876;28;20052;-64
2022/03/05 08:01:23;;;;;;;2.45;0.70;;;6.20;64.30;;;;;;20670605;28;20077;-62
2022/03/05 08:11:42;;;;;;;3.78;1.05;;;6.50;63.10;;;;;;20680914;28;20038;-62
2022/03/05 08:21:44;;;;;;;2.33;0.93;;;6.90;61.50;;;;;;20680735;28;20062;-66
2022/03/05 08:31:46;;;;;;;2.03;0.80;;;7.30;60.20;;;;;;20686934;28;20053;-63
2022/03/05 08:41:48;;;;;;;1.88;0.90;;;7.60;59.20;;;;;;20679129;28;20415;-66
2022/03/05 08:51:50;;;;;;;2.70;1.00;;;7.80;58.20;;;;;;20678863;28;20448;-67
2022/03/05 09:01:53;;;;;;;3.55;0.90;;;8.20;57.10;;;;;;20677799;28;20102;-63
2022/03/05 09:11:54;;;;;;;2.90;0.77;;;8.60;55.90;;;;;;20676061;28;20450;-62
2022/03/05 09:21:57;;;;;;;3.20;0.77;;;9.00;54.70;;;;;;20675426;28;20065;-62
2022/03/05 09:31:59;;;;;;;2.22;0.60;;;9.20;53.80;;;;;;20673326;28;20057;-63
2022/03/05 09:42:05;;;;;;;5.63;1.00;;;9.40;53.20;;;;;;20608656;28;20059;-55
2022/03/05 09:52:07;;;;;;;1.85;0.82;;;12.50;48.80;;;;;;20592122;28;20120;-65
2022/03/05 10:02:11;;;;;;;3.58;0.85;;;13.30;45.80;;;;;;20590506;28;20097;-62
2022/03/05 10:12:29;;;;;;;3.42;1.23;;;11.40;49.10;;;;;;20591490;28;20055;-60
2022/03/05 10:22:31;;;;;;;2.78;1.60;;;11.10;49.20;;;;;;20588615;28;20065;-62
2022/03/05 10:32:40;;;;;;;2.30;1.02;;;11.20;48.80;;;;;;20589789;28;20050;-63
2022/03/05 10:42:47;;;;;;;5.70;2.17;;;11.40;48.30;;;;;;20588256;28;20058;-62
2022/03/05 10:53:01;;;;;;;2.78;1.20;;;11.30;47.50;;;;;;20587553;28;20527;-64
2022/03/05 11:03:04;;;;;;;2.63;0.80;;;11.40;47.00;;;;;;20590128;28;20054;-65
2022/03/05 11:13:06;;;;;;;1.33;0.70;;;11.60;46.80;;;;;;20587604;28;20106;-63
2022/03/05 11:23:09;;;;;;;1.58;0.90;;;11.80;45.80;;;;;;20585370;28;20430;-63
2022/03/05 11:33:12;;;;;;;4.95;1.08;;;12.20;44.90;;;;;;20586589;28;20047;-65
2022/03/05 11:43:15;;;;;;;2.95;1.98;;;12.80;43.80;;;;;;20603552;28;20054;-61
2022/03/05 11:53:17;;;;;;;2.92;0.88;;;13.00;43.90;;;;;;20602462;28;20050;-65
2022/03/05 12:03:42;;;;;;;2.42;1.20;;;13.30;44.70;;;;;;20602433;28;20082;-61
2022/03/05 12:13:52;;;;;;;2.50;1.23;;;13.20;44.50;;;;;;20602825;28;20117;-61
2022/03/05 12:24:01;;;;;;;3.55;1.20;;;13.30;43.90;;;;;;20599888;28;20098;-60
2022/03/05 12:34:03;;;;;;;1.75;1.00;;;12.90;44.40;;;;;;20615935;28;20513;-60
2022/03/05 12:44:09;;;;;;;1.77;0.70;;;13.00;43.20;;;;;;20600934;28;20066;-65
2022/03/05 12:54:10;;;;;;;1.25;0.80;;;12.60;42.50;;;;;;20597043;28;20051;-66
2022/03/05 13:04:13;;;;;;;2.08;0.70;;;12.10;42.90;;;;;;20596108;28;20050;-62
2022/03/05 13:14:20;;;;;;;4.38;1.23;;;12.30;42.00;;;;;;20609937;28;20074;-62
2022/03/05 13:24:24;;;;;;;1.15;0.60;;;12.70;40.50;;;;;;20605441;28;20062;-58
2022/03/05 13:34:29;;;;;;;2.17;0.88;;;14.10;41.00;;;;;;20673947;28;20073;-60
2022/03/05 13:44:34;;;;;;;2.38;0.90;;;13.90;39.00;;;;;;20673201;28;20054;-59
2022/03/05 13:54:37;;;;;;;1.35;0.77;;;13.30;39.40;;;;;;20673447;28;20053;-60
2022/03/05 14:04:56;;;;;;;1.55;0.90;;;12.90;39.30;;;;;;20669848;28;20483;-59
2022/03/05 14:15:08;;;;;;;1.60;1.00;;;12.90;38.80;;;;;;20671213;28;20484;-61
2022/03/05 14:25:16;;;;;;;2.30;1.00;;;13.10;38.50;;;;;;20669785;28;20058;-59
2022/03/05 14:35:19;;;;;;;2.80;0.60;;;13.10;38.60;;;;;;20668890;28;20051;-59
2022/03/05 14:45:22;;;;;;;1.38;0.60;;;13.00;37.70;;;;;;20667989;28;20050;-60
2022/03/05 14:55:24;;;;;;;1.25;0.80;;;13.00;38.10;;;;;;20667821;28;20109;-58
2022/03/05 15:05:26;;;;;;;1.23;0.68;;;12.80;38.50;;;;;;20667027;28;20061;-61
2022/03/05 15:15:28;;;;;;;1.77;0.60;;;12.80;38.60;;;;;;20666154;28;20396;-60
2022/03/05 15:25:30;;;;;;;1.92;0.70;;;12.80;38.10;;;;;;20665312;28;20136;-61
2022/03/05 15:35:33;;;;;;;2.03;0.73;;;12.70;38.20;;;;;;20664856;28;20054;-59
2022/03/05 15:45:36;;;;;;;0.95;0.40;;;12.70;38.10;;;;;;20665360;28;20054;-59
2022/03/05 15:55:38;;;;;;;1.77;0.70;;;12.70;38.10;;;;;;20664658;28;20144;-61
2022/03/05 16:05:39;;;;;;;1.45;0.68;;;12.80;37.90;;;;;;20663642;28;20062;-60
2022/03/05 16:15:41;;;;;;;2.17;0.90;;;12.90;37.90;;;;;;20665366;28;20050;-61
2022/03/05 16:25:42;;;;;;;2.17;0.80;;;13.20;37.30;;;;;;20688137;28;20133;-62
2022/03/05 16:35:44;;;;;;;1.48;1.00;;;13.20;37.30;;;;;;20679266;28;20050;-61
2022/03/05 16:45:47;;;;;;;5.30;2.55;;;13.10;37.30;;;;;;20677842;28;20490;-58
2022/03/05 16:55:49;;;;;;;2.35;1.20;;;13.10;37.00;;;;;;20677376;28;20061;-59
2022/03/05 17:05:51;;;;;;;3.38;1.20;;;13.00;37.00;;;;;;20691123;28;20085;-59
2022/03/05 17:15:53;;;;;;;3.33;1.42;;;13.00;37.10;;;;;;20676378;28;20046;-59
2022/03/05 17:25:55;;;;;;;1.42;0.90;;;12.80;37.30;;;;;;20674198;28;20058;-60
2022/03/05 17:35:57;;;;;;;2.85;1.60;;;14.10;39.90;;;;;;20671885;28;20053;-64
2022/03/05 17:45:59;;;;;;;1.65;0.88;;;14.70;38.20;;;;;;20672671;28;20054;-69
2022/03/05 17:56:00;;;;;;;4.45;2.67;;;13.60;38.00;;;;;;20672572;28;20062;-61
2022/03/05 18:06:03;;;;;;;5.28;1.70;;;13.30;39.30;;;;;;20671952;28;20420;-60
2022/03/05 18:16:05;;;;;;;2.80;1.80;;;13.30;39.80;;;;;;20670380;28;20047;-57
2022/03/05 18:26:09;;;;;;;3.05;1.85;;;13.00;39.40;;;;;;20684493;28;20055;-59
2022/03/05 18:36:12;;;;;;;3.20;1.60;;;12.30;39.70;;;;;;20669313;28;20407;-59
2022/03/05 18:46:14;;;;;;;3.90;2.40;;;12.00;39.90;;;;;;20667782;28;20061;-59
2022/03/05 18:56:16;;;;;;;5.53;2.70;;;11.80;39.80;;;;;;20667671;28;20490;-60
2022/03/05 19:06:18;;;;;;;3.95;2.13;;;11.70;39.80;;;;;;20668242;28;20054;-60
2022/03/05 19:16:19;;;;;;;5.68;2.17;;;11.60;40.00;;;;;;20666935;28;20054;-59
2022/03/05 19:26:21;;;;;;;7.95;3.08;;;11.40;40.20;;;;;;20666856;28;20137;-58
2022/03/05 19:36:23;;;;;;;5.88;3.35;;;11.40;40.40;;;;;;20666232;28;20046;-58
2022/03/05 19:46:25;;;;;;;10.02;4.40;;;11.30;40.50;;;;;;20666190;28;20061;-59
2022/03/05 19:56:26;;;;;;;4.93;2.63;;;11.20;40.90;;;;;;20670251;28;20050;-58
2022/03/05 20:06:28;;;;;;;5.70;2.67;;;11.20;40.80;;;;;;20681784;28;20528;-60
2022/03/05 20:16:29;;;;;;;8.00;2.40;;;11.10;40.80;;;;;;20680886;28;20475;-59
2022/03/05 20:26:31;;;;;;;3.15;1.27;;;11.00;40.80;;;;;;20680874;28;20459;-58
2022/03/05 20:36:34;;;;;;;2.38;1.17;;;10.90;40.10;;;;;;20678665;28;20436;-58
2022/03/05 20:46:38;;;;;;;2.72;1.10;;;10.80;40.50;;;;;;20678027;28;20085;-60
2022/03/05 20:56:40;;;;;;;1.90;1.05;;;10.70;40.90;;;;;;20677468;28;20057;-59
2022/03/05 21:06:43;;;;;;;3.25;0.80;;;10.60;41.20;;;;;;20676513;28;20502;-59
2022/03/05 21:16:44;;;;;;;1.83;0.85;;;10.60;41.50;;;;;;20676397;28;20058;-60
2022/03/05 21:26:46;;;;;;;2.10;0.88;;;10.50;41.80;;;;;;20689389;28;20057;-58
2022/03/05 21:36:48;;;;;;;1.75;0.70;;;10.40;42.20;;;;;;20673301;28;20050;-58
2022/03/05 21:46:50;;;;;;;0.70;0.40;;;10.20;43.90;;;;;;20673562;28;20058;-58
2022/03/05 21:56:51;;;;;;;2.55;0.43;;;10.00;44.50;;;;;;20672250;28;20511;-59
2022/03/05 22:06:53;;;;;;;1.23;0.50;;;9.80;45.80;;;;;;20671492;28;20125;-58
2022/03/05 22:16:55;;;;;;;1.27;0.60;;;9.80;46.30;;;;;;20671896;28;20054;-58
2022/03/05 22:26:57;;;;;;;1.52;0.50;;;9.70;46.90;;;;;;20673466;28;20054;-58
2022/03/05 22:36:58;;;;;;;1.58;0.35;;;9.70;47.70;;;;;;20686221;28;20348;-56
2022/03/05 22:47:00;;;;;;;0.77;0.40;;;9.60;48.00;;;;;;20670330;28;20061;-59
2022/03/05 22:57:02;;;;;;;1.95;0.30;;;9.60;48.40;;;;;;20669432;28;20384;-58
2022/03/05 23:17:23;;;;;;;2.00;0.20;;;9.40;48.80;;;;;;20667339;28;20047;-59
2022/03/05 23:27:25;;;;;;;0.98;0.13;;;9.30;49.10;;;;;;20667751;28;20460;-61
2022/03/05 23:37:26;;;;;;;0.63;0.20;;;9.20;49.40;;;;;;20666010;28;20051;-58
2022/03/05 23:47:29;;;;;;;0.50;0.17;;;9.10;49.70;;;;;;20666810;28;20492;-59
2022/03/05 23:57:31;;;;;;;1.13;0.20;;;9.10;49.90;;;;;;20666824;28;20051;-59
